sensor_id;sensor_type;location;lat;lon;timestamp;temperature;humidity
9305;DHT22;4690;52.422;13.486;2022-07-29T00:06:01;16.60;99.90
9305;DHT22;4690;52.422;13.486;2022-07-29T00:08:27;16.60;99.90
9305;DHT22;4690;52.422;13.486;2022-07-29T00:10:52;16.60;99.90
9305;DHT22;4690;52.422;13.486;2022-07-29T00:13:18;16.50;99.90
9305;DHT22;4690;52.422;13.486;2022-07-29T00:15:44;16.50;99.90
9305;DHT22;4690;52.422;13.486;2022-07-29T00:18:10;16.40;99.90
9305;DHT22;4690;52.422;13.486;2022-07-29T00:20:35;16.40;99.90
9305;DHT22;4690;52.422;13.486;2022-07-29T00:23:01;16.40;99.90
9305;DHT22;4690;52.422;13.486;2022-07-29T00:25:27;16.30;99.90
9305;DHT22;4690;52.422;13.486;2022-07-29T00:27:52;16.40;99.90
9305;DHT22;4690;52.422;13.486;2022-07-29T00:30:18;16.30;99.90
9305;DHT22;4690;52.422;13.486;2022-07-29T00:32:44;16.30;99.90
9305;DHT22;4690;52.422;13.486;2022-07-29T00:35:09;16.20;99.90
9305;DHT22;4690;52.422;13.486;2022-07-29T00:37:54;16.20;99.90
9305;DHT22;4690;52.422;13.486;2022-07-29T00:40:20;16.10;99.90
9305;DHT22;4690;52.422;13.486;2022-07-29T00:42:47;16.10;99.90
9305;DHT22;4690;52.422;13.486;2022-07-29T00:45:16;16.20;99.90
9305;DHT22;4690;52.422;13.486;2022-07-29T00:47:43;16.20;99.90
9305;DHT22;4690;52.422;13.486;2022-07-29T00:50:10;16.10;99.90
9305;DHT22;4690;52.422;13.486;2022-07-29T00:52:39;16.10;99.90
9305;DHT22;4690;52.422;13.486;2022-07-29T00:55:09;16.00;99.90
9305;DHT22;4690;52.422;13.486;2022-07-29T00:57:38;16.00;99.90
9305;DHT22;4690;52.422;13.486;2022-07-29T01:00:07;16.00;99.90
9305;DHT22;4690;52.422;13.486;2022-07-29T01:02:35;15.90;99.90
9305;DHT22;4690;52.422;13.486;2022-07-29T01:05:02;15.90;99.90
9305;DHT22;4690;52.422;13.486;2022-07-29T01:07:30;15.90;99.90
9305;DHT22;4690;52.422;13.486;2022-07-29T01:09:59;15.80;99.90
9305;DHT22;4690;52.422;13.486;2022-07-29T01:12:27;15.90;99.90
9305;DHT22;4690;52.422;13.486;2022-07-29T01:14:57;15.80;99.90
9305;DHT22;4690;52.422;13.486;2022-07-29T01:17:44;15.80;99.90
9305;DHT22;4690;52.422;13.486;2022-07-29T01:29:46;15.70;99.90
9305;DHT22;4690;52.422;13.486;2022-07-29T01:32:21;15.60;99.90
9305;DHT22;4690;52.422;13.486;2022-07-29T01:38:07;15.50;99.90
9305;DHT22;4690;52.422;13.486;2022-07-29T01:40:52;15.50;99.90
9305;DHT22;4690;52.422;13.486;2022-07-29T01:43:32;15.50;99.90
9305;DHT22;4690;52.422;13.486;2022-07-29T01:46:11;15.50;99.90
9305;DHT22;4690;52.422;13.486;2022-07-29T01:48:42;15.40;99.90
9305;DHT22;4690;52.422;13.486;2022-07-29T01:51:20;15.30;99.90
9305;DHT22;4690;52.422;13.486;2022-07-29T01:53:57;15.40;99.90
9305;DHT22;4690;52.422;13.486;2022-07-29T01:56:35;15.30;99.90
9305;DHT22;4690;52.422;13.486;2022-07-29T01:59:06;15.30;99.90
9305;DHT22;4690;52.422;13.486;2022-07-29T02:01:36;15.30;99.90
9305;DHT22;4690;52.422;13.486;2022-07-29T02:04:07;15.30;99.90
9305;DHT22;4690;52.422;13.486;2022-07-29T02:06:37;15.30;99.90
9305;DHT22;4690;52.422;13.486;2022-07-29T02:09:07;15.20;99.90
9305;DHT22;4690;52.422;13.486;2022-07-29T02:11:35;15.10;99.90
9305;DHT22;4690;52.422;13.486;2022-07-29T02:14:05;15.20;99.90
9305;DHT22;4690;52.422;13.486;2022-07-29T02:16:33;15.20;99.90
9305;DHT22;4690;52.422;13.486;2022-07-29T02:19:02;15.20;99.90
9305;DHT22;4690;52.422;13.486;2022-07-29T02:21:30;15.10;99.90
9305;DHT22;4690;52.422;13.486;2022-07-29T02:24:01;15.10;99.90
9305;DHT22;4690;52.422;13.486;2022-07-29T02:26:30;15.10;99.90
9305;DHT22;4690;52.422;13.486;2022-07-29T02:28:59;15.10;99.90
9305;DHT22;4690;52.422;13.486;2022-07-29T02:31:30;15.10;99.90
9305;DHT22;4690;52.422;13.486;2022-07-29T02:34:01;15.10;99.90
9305;DHT22;4690;52.422;13.486;2022-07-29T02:36:31;15.10;99.90
9305;DHT22;4690;52.422;13.486;2022-07-29T02:38:59;15.10;99.90
9305;DHT22;4690;52.422;13.486;2022-07-29T02:41:29;15.10;99.90
9305;DHT22;4690;52.422;13.486;2022-07-29T02:44:14;15.10;99.90
9305;DHT22;4690;52.422;13.486;2022-07-29T02:46:53;15.10;99.90
9305;DHT22;4690;52.422;13.486;2022-07-29T02:54:55;15.10;99.90
9305;DHT22;4690;52.422;13.486;2022-07-29T02:57:42;15.10;99.90
9305;DHT22;4690;52.422;13.486;2022-07-29T03:00:12;15.00;99.90
9305;DHT22;4690;52.422;13.486;2022-07-29T03:02:45;15.10;99.90
9305;DHT22;4690;52.422;13.486;2022-07-29T03:05:20;15.10;99.90
9305;DHT22;4690;52.422;13.486;2022-07-29T03:07:51;15.10;99.90
9305;DHT22;4690;52.422;13.486;2022-07-29T03:10:21;15.10;99.90
9305;DHT22;4690;52.422;13.486;2022-07-29T03:12:48;15.10;99.90
9305;DHT22;4690;52.422;13.486;2022-07-29T03:15:14;15.10;99.90
9305;DHT22;4690;52.422;13.486;2022-07-29T03:17:40;15.20;99.90
9305;DHT22;4690;52.422;13.486;2022-07-29T03:20:08;15.20;99.90
9305;DHT22;4690;52.422;13.486;2022-07-29T03:22:42;15.20;99.90
9305;DHT22;4690;52.422;13.486;2022-07-29T03:25:13;15.10;99.90
9305;DHT22;4690;52.422;13.486;2022-07-29T03:27:40;15.20;99.90
9305;DHT22;4690;52.422;13.486;2022-07-29T03:30:08;15.20;99.90
9305;DHT22;4690;52.422;13.486;2022-07-29T03:32:35;15.20;99.90
9305;DHT22;4690;52.422;13.486;2022-07-29T03:35:01;15.20;99.90
9305;DHT22;4690;52.422;13.486;2022-07-29T03:37:27;15.20;99.90
9305;DHT22;4690;52.422;13.486;2022-07-29T03:39:57;15.20;99.90
9305;DHT22;4690;52.422;13.486;2022-07-29T03:42:28;15.10;99.90
9305;DHT22;4690;52.422;13.486;2022-07-29T03:44:58;15.20;99.90
9305;DHT22;4690;52.422;13.486;2022-07-29T03:47:29;15.10;99.90
9305;DHT22;4690;52.422;13.486;2022-07-29T03:50:02;15.20;99.90
9305;DHT22;4690;52.422;13.486;2022-07-29T03:52:32;15.20;99.90
9305;DHT22;4690;52.422;13.486;2022-07-29T03:54:58;15.20;99.90
9305;DHT22;4690;52.422;13.486;2022-07-29T03:57:27;15.20;99.90
9305;DHT22;4690;52.422;13.486;2022-07-29T03:59:55;15.20;99.90
9305;DHT22;4690;52.422;13.486;2022-07-29T04:02:23;15.20;99.90
9305;DHT22;4690;52.422;13.486;2022-07-29T04:04:51;15.20;99.90
9305;DHT22;4690;52.422;13.486;2022-07-29T04:07:17;15.20;99.90
9305;DHT22;4690;52.422;13.486;2022-07-29T04:09:43;15.20;99.90
9305;DHT22;4690;52.422;13.486;2022-07-29T04:12:09;15.20;99.90
9305;DHT22;4690;52.422;13.486;2022-07-29T04:14:35;15.30;99.90
9305;DHT22;4690;52.422;13.486;2022-07-29T04:17:02;15.40;99.90
9305;DHT22;4690;52.422;13.486;2022-07-29T04:19:29;15.40;99.90
9305;DHT22;4690;52.422;13.486;2022-07-29T04:21:56;15.40;99.90
9305;DHT22;4690;52.422;13.486;2022-07-29T04:24:22;15.40;99.90
9305;DHT22;4690;52.422;13.486;2022-07-29T04:26:48;15.40;99.90
9305;DHT22;4690;52.422;13.486;2022-07-29T04:29:14;15.40;99.90
9305;DHT22;4690;52.422;13.486;2022-07-29T04:31:41;15.40;99.90
9305;DHT22;4690;52.422;13.486;2022-07-29T04:34:07;15.50;99.90
9305;DHT22;4690;52.422;13.486;2022-07-29T04:36:33;15.50;99.90
9305;DHT22;4690;52.422;13.486;2022-07-29T04:38:59;15.70;99.90
9305;DHT22;4690;52.422;13.486;2022-07-29T04:41:26;15.70;99.90
9305;DHT22;4690;52.422;13.486;2022-07-29T04:43:52;15.60;99.90
9305;DHT22;4690;52.422;13.486;2022-07-29T04:46:18;15.70;99.90
9305;DHT22;4690;52.422;13.486;2022-07-29T04:48:47;15.70;99.90
9305;DHT22;4690;52.422;13.486;2022-07-29T04:51:14;15.80;99.90
9305;DHT22;4690;52.422;13.486;2022-07-29T04:53:40;15.70;99.90
9305;DHT22;4690;52.422;13.486;2022-07-29T04:56:06;15.80;99.90
9305;DHT22;4690;52.422;13.486;2022-07-29T04:58:34;15.80;99.90
9305;DHT22;4690;52.422;13.486;2022-07-29T05:01:01;15.80;99.90
9305;DHT22;4690;52.422;13.486;2022-07-29T05:03:27;15.80;99.90
9305;DHT22;4690;52.422;13.486;2022-07-29T05:05:53;15.80;99.90
9305;DHT22;4690;52.422;13.486;2022-07-29T05:08:19;15.80;99.90
9305;DHT22;4690;52.422;13.486;2022-07-29T05:10:45;15.80;99.90
9305;DHT22;4690;52.422;13.486;2022-07-29T05:13:11;15.90;99.90
9305;DHT22;4690;52.422;13.486;2022-07-29T05:15:36;15.90;99.90
9305;DHT22;4690;52.422;13.486;2022-07-29T05:18:03;15.90;99.90
9305;DHT22;4690;52.422;13.486;2022-07-29T05:20:30;16.00;99.90
9305;DHT22;4690;52.422;13.486;2022-07-29T05:22:57;16.00;99.90
9305;DHT22;4690;52.422;13.486;2022-07-29T05:25:25;16.00;99.90
9305;DHT22;4690;52.422;13.486;2022-07-29T05:27:51;16.10;99.90
9305;DHT22;4690;52.422;13.486;2022-07-29T05:30:17;16.10;99.90
9305;DHT22;4690;52.422;13.486;2022-07-29T05:32:43;16.20;99.90
9305;DHT22;4690;52.422;13.486;2022-07-29T05:35:09;16.20;99.90
9305;DHT22;4690;52.422;13.486;2022-07-29T05:37:35;16.20;99.90
9305;DHT22;4690;52.422;13.486;2022-07-29T05:40:02;16.10;99.90
9305;DHT22;4690;52.422;13.486;2022-07-29T05:42:28;16.10;99.90
9305;DHT22;4690;52.422;13.486;2022-07-29T05:44:54;16.20;99.90
9305;DHT22;4690;52.422;13.486;2022-07-29T05:47:21;16.20;99.90
9305;DHT22;4690;52.422;13.486;2022-07-29T05:49:47;16.30;99.90
9305;DHT22;4690;52.422;13.486;2022-07-29T05:52:13;16.30;99.90
9305;DHT22;4690;52.422;13.486;2022-07-29T05:54:40;16.40;99.90
9305;DHT22;4690;52.422;13.486;2022-07-29T05:57:06;16.50;99.90
9305;DHT22;4690;52.422;13.486;2022-07-29T05:59:36;16.50;99.90
9305;DHT22;4690;52.422;13.486;2022-07-29T06:02:02;16.60;99.90
9305;DHT22;4690;52.422;13.486;2022-07-29T06:04:30;16.70;99.90
9305;DHT22;4690;52.422;13.486;2022-07-29T06:06:57;16.90;99.90
9305;DHT22;4690;52.422;13.486;2022-07-29T06:09:23;17.00;99.90
9305;DHT22;4690;52.422;13.486;2022-07-29T06:11:48;17.10;99.90
9305;DHT22;4690;52.422;13.486;2022-07-29T06:14:14;17.30;99.90
9305;DHT22;4690;52.422;13.486;2022-07-29T06:16:40;17.70;99.90
9305;DHT22;4690;52.422;13.486;2022-07-29T06:19:06;17.80;99.90
9305;DHT22;4690;52.422;13.486;2022-07-29T06:21:32;17.90;99.90
9305;DHT22;4690;52.422;13.486;2022-07-29T06:23:59;18.00;99.90
9305;DHT22;4690;52.422;13.486;2022-07-29T06:26:24;17.90;99.90
9305;DHT22;4690;52.422;13.486;2022-07-29T06:28:50;18.00;99.90
9305;DHT22;4690;52.422;13.486;2022-07-29T06:31:18;18.10;99.90
9305;DHT22;4690;52.422;13.486;2022-07-29T06:33:44;18.40;99.90
9305;DHT22;4690;52.422;13.486;2022-07-29T06:36:10;18.50;99.90
9305;DHT22;4690;52.422;13.486;2022-07-29T06:38:36;18.60;99.90
9305;DHT22;4690;52.422;13.486;2022-07-29T06:41:03;18.90;99.90
9305;DHT22;4690;52.422;13.486;2022-07-29T06:43:39;19.00;99.90
9305;DHT22;4690;52.422;13.486;2022-07-29T06:46:11;19.00;99.90
9305;DHT22;4690;52.422;13.486;2022-07-29T06:48:39;19.00;99.90
9305;DHT22;4690;52.422;13.486;2022-07-29T06:51:06;18.90;99.90
9305;DHT22;4690;52.422;13.486;2022-07-29T06:53:32;18.80;99.90
9305;DHT22;4690;52.422;13.486;2022-07-29T06:55:59;18.80;99.90
9305;DHT22;4690;52.422;13.486;2022-07-29T06:58:27;18.80;99.90
9305;DHT22;4690;52.422;13.486;2022-07-29T07:00:53;18.70;99.90
9305;DHT22;4690;52.422;13.486;2022-07-29T07:03:19;18.70;99.90
9305;DHT22;4690;52.422;13.486;2022-07-29T07:05:45;18.70;99.90
9305;DHT22;4690;52.422;13.486;2022-07-29T07:08:13;18.80;99.90
9305;DHT22;4690;52.422;13.486;2022-07-29T07:10:39;18.80;99.90
9305;DHT22;4690;52.422;13.486;2022-07-29T07:13:05;19.00;99.90
9305;DHT22;4690;52.422;13.486;2022-07-29T07:15:31;19.00;99.90
9305;DHT22;4690;52.422;13.486;2022-07-29T07:17:57;19.20;99.90
9305;DHT22;4690;52.422;13.486;2022-07-29T07:20:24;19.20;99.90
9305;DHT22;4690;52.422;13.486;2022-07-29T07:22:50;19.30;99.90
9305;DHT22;4690;52.422;13.486;2022-07-29T07:25:16;19.50;99.90
9305;DHT22;4690;52.422;13.486;2022-07-29T07:27:43;19.80;99.90
9305;DHT22;4690;52.422;13.486;2022-07-29T07:30:09;20.00;99.90
9305;DHT22;4690;52.422;13.486;2022-07-29T07:32:36;20.20;99.90
9305;DHT22;4690;52.422;13.486;2022-07-29T07:35:04;20.50;99.90
9305;DHT22;4690;52.422;13.486;2022-07-29T07:37:31;20.80;99.90
9305;DHT22;4690;52.422;13.486;2022-07-29T07:39:57;21.00;99.90
9305;DHT22;4690;52.422;13.486;2022-07-29T07:42:23;21.00;99.90
9305;DHT22;4690;52.422;13.486;2022-07-29T07:44:49;20.60;99.90
9305;DHT22;4690;52.422;13.486;2022-07-29T07:47:16;20.70;99.90
9305;DHT22;4690;52.422;13.486;2022-07-29T07:49:52;21.00;99.90
9305;DHT22;4690;52.422;13.486;2022-07-29T07:52:20;21.10;99.90
9305;DHT22;4690;52.422;13.486;2022-07-29T07:54:47;21.40;99.90
9305;DHT22;4690;52.422;13.486;2022-07-29T07:57:14;21.70;99.90
9305;DHT22;4690;52.422;13.486;2022-07-29T07:59:40;21.90;99.90
9305;DHT22;4690;52.422;13.486;2022-07-29T08:02:07;22.20;99.90
9305;DHT22;4690;52.422;13.486;2022-07-29T08:04:34;22.40;99.90
9305;DHT22;4690;52.422;13.486;2022-07-29T08:07:01;22.60;99.90
9305;DHT22;4690;52.422;13.486;2022-07-29T08:09:28;22.60;99.90
9305;DHT22;4690;52.422;13.486;2022-07-29T08:11:55;22.30;99.90
9305;DHT22;4690;52.422;13.486;2022-07-29T08:14:22;22.30;99.90
9305;DHT22;4690;52.422;13.486;2022-07-29T08:16:48;22.20;99.90
9305;DHT22;4690;52.422;13.486;2022-07-29T08:19:14;22.30;99.90
9305;DHT22;4690;52.422;13.486;2022-07-29T08:21:40;22.30;99.90
9305;DHT22;4690;52.422;13.486;2022-07-29T08:24:06;22.40;99.90
9305;DHT22;4690;52.422;13.486;2022-07-29T08:26:50;22.40;99.90
9305;DHT22;4690;52.422;13.486;2022-07-29T08:29:16;22.50;99.90
9305;DHT22;4690;52.422;13.486;2022-07-29T08:31:42;22.50;99.90
9305;DHT22;4690;52.422;13.486;2022-07-29T08:34:08;22.50;99.90
9305;DHT22;4690;52.422;13.486;2022-07-29T08:36:35;22.50;99.90
9305;DHT22;4690;52.422;13.486;2022-07-29T08:39:01;22.50;99.90
9305;DHT22;4690;52.422;13.486;2022-07-29T08:41:28;22.60;99.90
9305;DHT22;4690;52.422;13.486;2022-07-29T08:43:54;22.70;99.90
9305;DHT22;4690;52.422;13.486;2022-07-29T08:46:20;22.80;99.90
9305;DHT22;4690;52.422;13.486;2022-07-29T08:48:47;23.00;99.90
9305;DHT22;4690;52.422;13.486;2022-07-29T08:51:16;23.10;99.90
9305;DHT22;4690;52.422;13.486;2022-07-29T08:53:45;23.20;99.90
9305;DHT22;4690;52.422;13.486;2022-07-29T08:56:16;23.30;99.90
9305;DHT22;4690;52.422;13.486;2022-07-29T08:58:46;23.20;99.90
9305;DHT22;4690;52.422;13.486;2022-07-29T09:01:17;23.00;99.90
9305;DHT22;4690;52.422;13.486;2022-07-29T09:03:47;23.00;99.90
9305;DHT22;4690;52.422;13.486;2022-07-29T09:06:17;22.90;99.90
9305;DHT22;4690;52.422;13.486;2022-07-29T09:08:44;22.90;99.90
9305;DHT22;4690;52.422;13.486;2022-07-29T09:11:11;22.90;99.90
9305;DHT22;4690;52.422;13.486;2022-07-29T09:13:39;22.90;99.90
9305;DHT22;4690;52.422;13.486;2022-07-29T09:16:06;23.00;99.90
9305;DHT22;4690;52.422;13.486;2022-07-29T09:18:43;23.30;99.90
9305;DHT22;4690;52.422;13.486;2022-07-29T09:21:15;23.40;99.90
9305;DHT22;4690;52.422;13.486;2022-07-29T09:24:11;23.70;99.90
9305;DHT22;4690;52.422;13.486;2022-07-29T09:26:40;23.90;99.90
9305;DHT22;4690;52.422;13.486;2022-07-29T09:29:16;24.20;99.90
9305;DHT22;4690;52.422;13.486;2022-07-29T09:31:45;24.40;99.90
9305;DHT22;4690;52.422;13.486;2022-07-29T09:34:15;24.60;99.90
9305;DHT22;4690;52.422;13.486;2022-07-29T09:36:48;25.10;99.90
9305;DHT22;4690;52.422;13.486;2022-07-29T09:39:17;25.30;99.90
9305;DHT22;4690;52.422;13.486;2022-07-29T09:42:04;25.50;99.90
9305;DHT22;4690;52.422;13.486;2022-07-29T09:47:09;25.30;99.90
9305;DHT22;4690;52.422;13.486;2022-07-29T09:49:36;25.00;99.90
9305;DHT22;4690;52.422;13.486;2022-07-29T09:52:16;25.00;99.90
9305;DHT22;4690;52.422;13.486;2022-07-29T09:54:42;25.00;99.90
9305;DHT22;4690;52.422;13.486;2022-07-29T09:57:09;25.30;99.90
9305;DHT22;4690;52.422;13.486;2022-07-29T10:00:06;25.30;99.90
9305;DHT22;4690;52.422;13.486;2022-07-29T10:02:37;25.30;99.90
9305;DHT22;4690;52.422;13.486;2022-07-29T10:05:06;25.30;99.90
9305;DHT22;4690;52.422;13.486;2022-07-29T10:07:54;25.50;99.90
9305;DHT22;4690;52.422;13.486;2022-07-29T10:12:56;25.70;99.90
9305;DHT22;4690;52.422;13.486;2022-07-29T10:15:24;25.70;99.90
9305;DHT22;4690;52.422;13.486;2022-07-29T10:17:53;25.70;99.90
9305;DHT22;4690;52.422;13.486;2022-07-29T10:20:22;25.60;99.90
9305;DHT22;4690;52.422;13.486;2022-07-29T10:22:49;25.60;99.90
9305;DHT22;4690;52.422;13.486;2022-07-29T10:25:17;25.50;99.90
9305;DHT22;4690;52.422;13.486;2022-07-29T10:27:45;25.30;99.90
9305;DHT22;4690;52.422;13.486;2022-07-29T10:30:14;25.10;99.90
9305;DHT22;4690;52.422;13.486;2022-07-29T10:46:55;25.60;99.90
9305;DHT22;4690;52.422;13.486;2022-07-29T10:49:25;26.00;99.90
9305;DHT22;4690;52.422;13.486;2022-07-29T10:54:43;26.30;99.90
9305;DHT22;4690;52.422;13.486;2022-07-29T10:59:44;26.90;99.90
9305;DHT22;4690;52.422;13.486;2022-07-29T11:07:25;26.70;99.90
9305;DHT22;4690;52.422;13.486;2022-07-29T11:15:13;26.70;99.90
9305;DHT22;4690;52.422;13.486;2022-07-29T11:23:30;26.90;99.90
9305;DHT22;4690;52.422;13.486;2022-07-29T11:26:13;27.20;99.90
9305;DHT22;4690;52.422;13.486;2022-07-29T11:29:03;27.60;99.90
9305;DHT22;4690;52.422;13.486;2022-07-29T11:34:25;27.70;99.90
9305;DHT22;4690;52.422;13.486;2022-07-29T11:47:25;27.50;99.90
9305;DHT22;4690;52.422;13.486;2022-07-29T11:49:54;27.60;99.90
9305;DHT22;4690;52.422;13.486;2022-07-29T11:52:21;28.00;99.90
9305;DHT22;4690;52.422;13.486;2022-07-29T11:54:48;27.90;99.90
9305;DHT22;4690;52.422;13.486;2022-07-29T11:57:19;27.80;99.90
9305;DHT22;4690;52.422;13.486;2022-07-29T11:59:46;27.80;99.90
9305;DHT22;4690;52.422;13.486;2022-07-29T12:02:13;27.80;99.90
9305;DHT22;4690;52.422;13.486;2022-07-29T12:04:53;27.90;99.90
9305;DHT22;4690;52.422;13.486;2022-07-29T12:07:27;27.70;99.90
9305;DHT22;4690;52.422;13.486;2022-07-29T12:09:54;27.80;99.90
9305;DHT22;4690;52.422;13.486;2022-07-29T12:12:20;27.80;99.90
9305;DHT22;4690;52.422;13.486;2022-07-29T12:14:47;27.90;99.90
9305;DHT22;4690;52.422;13.486;2022-07-29T12:17:33;28.00;99.90
9305;DHT22;4690;52.422;13.486;2022-07-29T12:20:04;27.80;99.90
9305;DHT22;4690;52.422;13.486;2022-07-29T12:22:37;27.40;99.90
9305;DHT22;4690;52.422;13.486;2022-07-29T12:25:10;27.60;99.90
9305;DHT22;4690;52.422;13.486;2022-07-29T12:27:39;27.70;99.90
9305;DHT22;4690;52.422;13.486;2022-07-29T12:30:08;27.60;99.90
9305;DHT22;4690;52.422;13.486;2022-07-29T12:32:45;27.60;99.90
9305;DHT22;4690;52.422;13.486;2022-07-29T12:35:14;27.80;99.90
9305;DHT22;4690;52.422;13.486;2022-07-29T12:37:43;28.10;99.90
9305;DHT22;4690;52.422;13.486;2022-07-29T12:40:13;28.20;99.90
9305;DHT22;4690;52.422;13.486;2022-07-29T12:43:02;28.40;99.90
9305;DHT22;4690;52.422;13.486;2022-07-29T12:45:31;28.40;99.90
9305;DHT22;4690;52.422;13.486;2022-07-29T12:47:57;28.40;99.90
9305;DHT22;4690;52.422;13.486;2022-07-29T12:50:23;28.30;99.90
9305;DHT22;4690;52.422;13.486;2022-07-29T12:52:50;28.10;99.90
9305;DHT22;4690;52.422;13.486;2022-07-29T12:55:31;27.90;99.90
9305;DHT22;4690;52.422;13.486;2022-07-29T12:58:05;27.70;99.90
9305;DHT22;4690;52.422;13.486;2022-07-29T13:00:32;27.60;99.90
9305;DHT22;4690;52.422;13.486;2022-07-29T13:02:59;27.50;99.90
9305;DHT22;4690;52.422;13.486;2022-07-29T13:05:40;27.20;99.90
9305;DHT22;4690;52.422;13.486;2022-07-29T13:08:12;27.40;99.90
9305;DHT22;4690;52.422;13.486;2022-07-29T13:10:43;27.60;99.90
9305;DHT22;4690;52.422;13.486;2022-07-29T13:13:12;27.60;99.90
9305;DHT22;4690;52.422;13.486;2022-07-29T13:15:43;27.40;99.90
9305;DHT22;4690;52.422;13.486;2022-07-29T13:18:32;27.40;99.90
9305;DHT22;4690;52.422;13.486;2022-07-29T13:21:14;27.30;99.90
9305;DHT22;4690;52.422;13.486;2022-07-29T13:23:41;27.60;99.90
9305;DHT22;4690;52.422;13.486;2022-07-29T13:26:11;27.70;99.90
9305;DHT22;4690;52.422;13.486;2022-07-29T13:28:37;27.90;99.90
9305;DHT22;4690;52.422;13.486;2022-07-29T13:31:03;28.00;99.90
9305;DHT22;4690;52.422;13.486;2022-07-29T13:33:30;28.20;99.90
9305;DHT22;4690;52.422;13.486;2022-07-29T13:35:56;28.00;99.90
9305;DHT22;4690;52.422;13.486;2022-07-29T13:38:22;27.90;99.90
9305;DHT22;4690;52.422;13.486;2022-07-29T13:40:48;28.10;99.90
9305;DHT22;4690;52.422;13.486;2022-07-29T13:43:13;28.20;99.90
9305;DHT22;4690;52.422;13.486;2022-07-29T13:45:39;27.90;99.90
9305;DHT22;4690;52.422;13.486;2022-07-29T13:48:05;27.80;99.90
9305;DHT22;4690;52.422;13.486;2022-07-29T13:50:32;27.50;99.90
9305;DHT22;4690;52.422;13.486;2022-07-29T13:52:58;27.50;99.90
9305;DHT22;4690;52.422;13.486;2022-07-29T13:55:24;27.50;99.90
9305;DHT22;4690;52.422;13.486;2022-07-29T13:57:50;27.50;99.90
9305;DHT22;4690;52.422;13.486;2022-07-29T14:00:16;27.50;99.90
9305;DHT22;4690;52.422;13.486;2022-07-29T14:02:42;27.70;99.90
9305;DHT22;4690;52.422;13.486;2022-07-29T14:05:08;28.00;99.90
9305;DHT22;4690;52.422;13.486;2022-07-29T14:07:36;28.10;99.90
9305;DHT22;4690;52.422;13.486;2022-07-29T14:10:04;28.20;99.90
9305;DHT22;4690;52.422;13.486;2022-07-29T14:12:31;28.20;99.90
9305;DHT22;4690;52.422;13.486;2022-07-29T14:14:57;27.90;99.90
9305;DHT22;4690;52.422;13.486;2022-07-29T14:17:22;27.70;99.90
9305;DHT22;4690;52.422;13.486;2022-07-29T14:19:48;27.50;99.90
9305;DHT22;4690;52.422;13.486;2022-07-29T14:22:14;27.70;99.90
9305;DHT22;4690;52.422;13.486;2022-07-29T14:24:40;27.90;99.90
9305;DHT22;4690;52.422;13.486;2022-07-29T14:27:06;27.80;99.90
9305;DHT22;4690;52.422;13.486;2022-07-29T14:29:33;27.80;99.90
9305;DHT22;4690;52.422;13.486;2022-07-29T14:31:59;27.80;99.90
9305;DHT22;4690;52.422;13.486;2022-07-29T14:34:25;27.50;99.90
9305;DHT22;4690;52.422;13.486;2022-07-29T14:36:51;27.40;99.90
9305;DHT22;4690;52.422;13.486;2022-07-29T14:39:16;27.60;99.90
9305;DHT22;4690;52.422;13.486;2022-07-29T14:41:42;27.80;99.90
9305;DHT22;4690;52.422;13.486;2022-07-29T14:44:08;28.10;99.90
9305;DHT22;4690;52.422;13.486;2022-07-29T14:46:34;28.20;99.90
9305;DHT22;4690;52.422;13.486;2022-07-29T14:49:00;28.20;99.90
9305;DHT22;4690;52.422;13.486;2022-07-29T14:51:26;28.20;99.90
9305;DHT22;4690;52.422;13.486;2022-07-29T14:53:52;28.30;99.90
9305;DHT22;4690;52.422;13.486;2022-07-29T14:56:17;28.40;99.90
9305;DHT22;4690;52.422;13.486;2022-07-29T14:58:43;28.60;99.90
9305;DHT22;4690;52.422;13.486;2022-07-29T15:01:09;28.50;99.90
9305;DHT22;4690;52.422;13.486;2022-07-29T15:03:35;28.40;99.90
9305;DHT22;4690;52.422;13.486;2022-07-29T15:06:00;28.20;99.90
9305;DHT22;4690;52.422;13.486;2022-07-29T15:08:26;27.80;99.90
9305;DHT22;4690;52.422;13.486;2022-07-29T15:10:55;27.60;99.90
9305;DHT22;4690;52.422;13.486;2022-07-29T15:13:22;27.50;99.90
9305;DHT22;4690;52.422;13.486;2022-07-29T15:15:48;27.60;99.90
9305;DHT22;4690;52.422;13.486;2022-07-29T15:18:15;27.90;99.90
9305;DHT22;4690;52.422;13.486;2022-07-29T15:20:40;27.90;99.90
9305;DHT22;4690;52.422;13.486;2022-07-29T15:23:07;28.00;99.90
9305;DHT22;4690;52.422;13.486;2022-07-29T15:25:35;28.10;99.90
9305;DHT22;4690;52.422;13.486;2022-07-29T15:28:02;28.20;99.90
9305;DHT22;4690;52.422;13.486;2022-07-29T15:30:33;28.30;99.90
9305;DHT22;4690;52.422;13.486;2022-07-29T15:33:06;28.20;99.90
9305;DHT22;4690;52.422;13.486;2022-07-29T15:35:34;28.10;99.90
9305;DHT22;4690;52.422;13.486;2022-07-29T15:38:00;28.00;99.90
9305;DHT22;4690;52.422;13.486;2022-07-29T15:40:26;27.90;99.90
9305;DHT22;4690;52.422;13.486;2022-07-29T15:42:53;27.90;99.90
9305;DHT22;4690;52.422;13.486;2022-07-29T15:45:19;27.90;99.90
9305;DHT22;4690;52.422;13.486;2022-07-29T15:47:45;27.80;99.90
9305;DHT22;4690;52.422;13.486;2022-07-29T15:50:10;27.60;99.90
9305;DHT22;4690;52.422;13.486;2022-07-29T15:52:41;27.50;99.90
9305;DHT22;4690;52.422;13.486;2022-07-29T15:55:11;27.40;99.90
9305;DHT22;4690;52.422;13.486;2022-07-29T15:57:37;27.20;99.90
9305;DHT22;4690;52.422;13.486;2022-07-29T16:00:03;27.20;99.90
9305;DHT22;4690;52.422;13.486;2022-07-29T16:02:30;27.20;99.90
9305;DHT22;4690;52.422;13.486;2022-07-29T16:04:56;27.30;99.90
9305;DHT22;4690;52.422;13.486;2022-07-29T16:07:21;27.20;99.90
9305;DHT22;4690;52.422;13.486;2022-07-29T16:09:47;27.30;99.90
9305;DHT22;4690;52.422;13.486;2022-07-29T16:12:13;27.40;99.90
9305;DHT22;4690;52.422;13.486;2022-07-29T16:14:38;27.30;99.90
9305;DHT22;4690;52.422;13.486;2022-07-29T16:17:04;27.20;99.90
9305;DHT22;4690;52.422;13.486;2022-07-29T16:19:30;27.20;99.90
9305;DHT22;4690;52.422;13.486;2022-07-29T16:21:56;27.20;99.90
9305;DHT22;4690;52.422;13.486;2022-07-29T16:24:21;27.20;99.90
9305;DHT22;4690;52.422;13.486;2022-07-29T16:26:52;27.20;99.90
9305;DHT22;4690;52.422;13.486;2022-07-29T16:29:17;27.30;99.90
9305;DHT22;4690;52.422;13.486;2022-07-29T16:31:43;27.20;99.90
9305;DHT22;4690;52.422;13.486;2022-07-29T16:34:09;27.20;99.90
9305;DHT22;4690;52.422;13.486;2022-07-29T16:36:35;27.20;99.90
9305;DHT22;4690;52.422;13.486;2022-07-29T16:39:01;27.20;99.90
9305;DHT22;4690;52.422;13.486;2022-07-29T16:41:26;27.20;99.90
9305;DHT22;4690;52.422;13.486;2022-07-29T16:43:53;27.20;99.90
9305;DHT22;4690;52.422;13.486;2022-07-29T16:46:19;27.20;99.90
9305;DHT22;4690;52.422;13.486;2022-07-29T16:48:48;27.10;99.90
9305;DHT22;4690;52.422;13.486;2022-07-29T16:51:14;27.10;99.90
9305;DHT22;4690;52.422;13.486;2022-07-29T16:53:40;27.10;99.90
9305;DHT22;4690;52.422;13.486;2022-07-29T16:56:09;27.20;99.90
9305;DHT22;4690;52.422;13.486;2022-07-29T16:58:35;27.10;99.90
9305;DHT22;4690;52.422;13.486;2022-07-29T17:01:02;27.20;99.90
9305;DHT22;4690;52.422;13.486;2022-07-29T17:03:28;27.10;99.90
9305;DHT22;4690;52.422;13.486;2022-07-29T17:05:54;27.00;99.90
9305;DHT22;4690;52.422;13.486;2022-07-29T17:08:20;27.00;99.90
9305;DHT22;4690;52.422;13.486;2022-07-29T17:10:46;27.00;99.90